sensor_id;sensor_type;location;lat;lon;timestamp;temperature;humidity
30174;DHT22;16985;50.814;8.530;2022-08-06T00:00:55;15.00;87.30
30174;DHT22;16985;50.814;8.530;2022-08-06T00:03:21;14.80;87.10
30174;DHT22;16985;50.814;8.530;2022-08-06T00:05:47;14.80;87.40
30174;DHT22;16985;50.814;8.530;2022-08-06T00:08:12;14.80;87.80
30174;DHT22;16985;50.814;8.530;2022-08-06T00:10:38;14.80;88.10
30174;DHT22;16985;50.814;8.530;2022-08-06T00:13:04;14.80;88.00
30174;DHT22;16985;50.814;8.530;2022-08-06T00:15:30;14.70;88.40
30174;DHT22;16985;50.814;8.530;2022-08-06T00:17:57;14.70;88.90
30174;DHT22;16985;50.814;8.530;2022-08-06T00:20:22;14.60;88.30
30174;DHT22;16985;50.814;8.530;2022-08-06T00:22:48;14.60;88.80
30174;DHT22;16985;50.814;8.530;2022-08-06T00:25:14;14.50;88.60
30174;DHT22;16985;50.814;8.530;2022-08-06T00:27:40;14.50;88.80
30174;DHT22;16985;50.814;8.530;2022-08-06T00:30:07;14.40;88.70
30174;DHT22;16985;50.814;8.530;2022-08-06T00:32:34;14.40;89.80
30174;DHT22;16985;50.814;8.530;2022-08-06T00:35:00;14.30;89.00
30174;DHT22;16985;50.814;8.530;2022-08-06T00:37:26;14.40;89.40
30174;DHT22;16985;50.814;8.530;2022-08-06T00:39:55;14.30;89.30
30174;DHT22;16985;50.814;8.530;2022-08-06T00:42:21;14.30;89.70
30174;DHT22;16985;50.814;8.530;2022-08-06T00:44:47;14.10;89.80
30174;DHT22;16985;50.814;8.530;2022-08-06T00:47:13;14.20;89.90
30174;DHT22;16985;50.814;8.530;2022-08-06T00:49:38;14.20;90.10
30174;DHT22;16985;50.814;8.530;2022-08-06T00:52:04;14.10;90.10
30174;DHT22;16985;50.814;8.530;2022-08-06T00:54:30;14.10;90.10
30174;DHT22;16985;50.814;8.530;2022-08-06T00:56:56;14.00;90.20
30174;DHT22;16985;50.814;8.530;2022-08-06T00:59:22;14.00;90.30
30174;DHT22;16985;50.814;8.530;2022-08-06T01:01:48;14.00;90.40
30174;DHT22;16985;50.814;8.530;2022-08-06T01:04:13;13.90;90.40
30174;DHT22;16985;50.814;8.530;2022-08-06T01:06:39;13.90;90.30
30174;DHT22;16985;50.814;8.530;2022-08-06T01:09:05;13.90;90.40
30174;DHT22;16985;50.814;8.530;2022-08-06T01:11:31;13.80;90.50
30174;DHT22;16985;50.814;8.530;2022-08-06T01:13:57;13.80;90.60
30174;DHT22;16985;50.814;8.530;2022-08-06T01:16:54;13.80;90.50
30174;DHT22;16985;50.814;8.530;2022-08-06T01:25:01;13.70;90.80
30174;DHT22;16985;50.814;8.530;2022-08-06T01:27:56;13.70;90.80
30174;DHT22;16985;50.814;8.530;2022-08-06T01:30:34;13.70;90.90
30174;DHT22;16985;50.814;8.530;2022-08-06T01:33:10;13.60;90.80
30174;DHT22;16985;50.814;8.530;2022-08-06T01:35:41;13.60;90.90
30174;DHT22;16985;50.814;8.530;2022-08-06T01:38:11;13.60;90.90
30174;DHT22;16985;50.814;8.530;2022-08-06T01:40:41;13.60;90.80
30174;DHT22;16985;50.814;8.530;2022-08-06T01:43:11;13.50;90.80
30174;DHT22;16985;50.814;8.530;2022-08-06T01:45:39;13.50;90.90
30174;DHT22;16985;50.814;8.530;2022-08-06T01:48:14;13.40;90.90
30174;DHT22;16985;50.814;8.530;2022-08-06T01:50:46;13.50;90.50
30174;DHT22;16985;50.814;8.530;2022-08-06T01:53:17;13.50;90.50
30174;DHT22;16985;50.814;8.530;2022-08-06T01:55:48;13.40;90.60
30174;DHT22;16985;50.814;8.530;2022-08-06T01:58:18;13.40;90.60
30174;DHT22;16985;50.814;8.530;2022-08-06T02:00:48;13.30;90.70
30174;DHT22;16985;50.814;8.530;2022-08-06T02:03:38;13.30;90.60
30174;DHT22;16985;50.814;8.530;2022-08-06T02:06:06;13.30;90.50
30174;DHT22;16985;50.814;8.530;2022-08-06T02:08:36;13.30;90.80
30174;DHT22;16985;50.814;8.530;2022-08-06T02:11:04;13.20;90.70
30174;DHT22;16985;50.814;8.530;2022-08-06T02:13:33;13.20;90.90
30174;DHT22;16985;50.814;8.530;2022-08-06T02:16:01;13.20;91.00
30174;DHT22;16985;50.814;8.530;2022-08-06T02:18:31;13.10;91.00
30174;DHT22;16985;50.814;8.530;2022-08-06T02:21:05;13.00;91.10
30174;DHT22;16985;50.814;8.530;2022-08-06T02:23:32;13.00;91.10
30174;DHT22;16985;50.814;8.530;2022-08-06T02:26:02;12.90;91.10
30174;DHT22;16985;50.814;8.530;2022-08-06T02:28:28;12.90;91.20
30174;DHT22;16985;50.814;8.530;2022-08-06T02:30:56;12.80;91.40
30174;DHT22;16985;50.814;8.530;2022-08-06T02:33:23;12.80;91.30
30174;DHT22;16985;50.814;8.530;2022-08-06T02:38:46;12.80;91.70
30174;DHT22;16985;50.814;8.530;2022-08-06T02:44:06;12.70;91.70
30174;DHT22;16985;50.814;8.530;2022-08-06T02:47:02;12.70;91.60
30174;DHT22;16985;50.814;8.530;2022-08-06T02:49:36;12.60;91.90
30174;DHT22;16985;50.814;8.530;2022-08-06T02:52:11;12.60;91.80
30174;DHT22;16985;50.814;8.530;2022-08-06T02:54:50;12.60;91.80
30174;DHT22;16985;50.814;8.530;2022-08-06T02:57:23;12.60;91.80
30174;DHT22;16985;50.814;8.530;2022-08-06T03:00:03;12.60;91.50
30174;DHT22;16985;50.814;8.530;2022-08-06T03:02:33;12.50;91.80
30174;DHT22;16985;50.814;8.530;2022-08-06T03:05:03;12.50;91.80
30174;DHT22;16985;50.814;8.530;2022-08-06T03:07:32;12.40;91.80
30174;DHT22;16985;50.814;8.530;2022-08-06T03:10:00;12.40;92.00
30174;DHT22;16985;50.814;8.530;2022-08-06T03:12:27;12.40;92.00
30174;DHT22;16985;50.814;8.530;2022-08-06T03:14:54;12.30;91.90
30174;DHT22;16985;50.814;8.530;2022-08-06T03:17:22;12.30;92.00
30174;DHT22;16985;50.814;8.530;2022-08-06T03:19:49;12.30;92.10
30174;DHT22;16985;50.814;8.530;2022-08-06T03:22:16;12.20;92.20
30174;DHT22;16985;50.814;8.530;2022-08-06T03:24:44;12.20;92.20
30174;DHT22;16985;50.814;8.530;2022-08-06T03:27:12;12.10;92.30
30174;DHT22;16985;50.814;8.530;2022-08-06T03:29:41;12.10;92.50
30174;DHT22;16985;50.814;8.530;2022-08-06T03:32:09;12.10;92.50
30174;DHT22;16985;50.814;8.530;2022-08-06T03:34:37;12.00;92.60
30174;DHT22;16985;50.814;8.530;2022-08-06T03:37:05;12.00;92.60
30174;DHT22;16985;50.814;8.530;2022-08-06T03:39:33;12.00;92.70
30174;DHT22;16985;50.814;8.530;2022-08-06T03:42:00;11.90;92.70
30174;DHT22;16985;50.814;8.530;2022-08-06T03:44:25;12.00;92.80
30174;DHT22;16985;50.814;8.530;2022-08-06T03:46:58;11.90;92.90
30174;DHT22;16985;50.814;8.530;2022-08-06T03:49:32;11.90;93.40
30174;DHT22;16985;50.814;8.530;2022-08-06T03:52:02;11.90;93.40
30174;DHT22;16985;50.814;8.530;2022-08-06T03:54:33;11.90;93.10
30174;DHT22;16985;50.814;8.530;2022-08-06T03:57:14;11.80;93.20
30174;DHT22;16985;50.814;8.530;2022-08-06T03:59:49;11.80;93.10
30174;DHT22;16985;50.814;8.530;2022-08-06T04:02:16;11.80;93.10
30174;DHT22;16985;50.814;8.530;2022-08-06T04:04:43;11.80;93.10
30174;DHT22;16985;50.814;8.530;2022-08-06T04:07:15;11.80;93.20
30174;DHT22;16985;50.814;8.530;2022-08-06T04:09:42;11.80;93.20
30174;DHT22;16985;50.814;8.530;2022-08-06T04:12:08;11.70;93.30
30174;DHT22;16985;50.814;8.530;2022-08-06T04:14:35;11.70;93.30
30174;DHT22;16985;50.814;8.530;2022-08-06T04:17:02;11.70;93.40
30174;DHT22;16985;50.814;8.530;2022-08-06T04:19:29;11.70;93.30
30174;DHT22;16985;50.814;8.530;2022-08-06T04:21:56;11.60;93.50
30174;DHT22;16985;50.814;8.530;2022-08-06T04:24:22;11.60;93.40
30174;DHT22;16985;50.814;8.530;2022-08-06T04:26:50;11.60;93.40
30174;DHT22;16985;50.814;8.530;2022-08-06T04:29:18;11.60;93.40
30174;DHT22;16985;50.814;8.530;2022-08-06T04:31:47;11.60;93.40
30174;DHT22;16985;50.814;8.530;2022-08-06T04:34:20;11.60;93.50
30174;DHT22;16985;50.814;8.530;2022-08-06T04:36:49;11.50;93.70
30174;DHT22;16985;50.814;8.530;2022-08-06T04:39:17;11.50;93.80
30174;DHT22;16985;50.814;8.530;2022-08-06T04:41:43;11.50;94.20
30174;DHT22;16985;50.814;8.530;2022-08-06T04:44:10;11.50;94.00
30174;DHT22;16985;50.814;8.530;2022-08-06T04:46:37;11.50;94.10
30174;DHT22;16985;50.814;8.530;2022-08-06T04:49:03;11.50;94.60
30174;DHT22;16985;50.814;8.530;2022-08-06T04:51:29;11.50;94.70
30174;DHT22;16985;50.814;8.530;2022-08-06T04:53:56;11.50;94.70
30174;DHT22;16985;50.814;8.530;2022-08-06T04:56:22;11.50;94.50
30174;DHT22;16985;50.814;8.530;2022-08-06T04:58:48;11.50;94.20
30174;DHT22;16985;50.814;8.530;2022-08-06T05:01:14;11.50;93.80
30174;DHT22;16985;50.814;8.530;2022-08-06T05:03:40;11.50;93.80
30174;DHT22;16985;50.814;8.530;2022-08-06T05:06:10;11.50;94.00
30174;DHT22;16985;50.814;8.530;2022-08-06T05:08:58;11.50;94.30
30174;DHT22;16985;50.814;8.530;2022-08-06T05:11:39;11.50;94.70
30174;DHT22;16985;50.814;8.530;2022-08-06T05:14:14;11.50;94.90
30174;DHT22;16985;50.814;8.530;2022-08-06T05:16:44;11.50;94.70
30174;DHT22;16985;50.814;8.530;2022-08-06T05:19:16;11.50;94.80
30174;DHT22;16985;50.814;8.530;2022-08-06T05:21:45;11.50;94.60
30174;DHT22;16985;50.814;8.530;2022-08-06T05:24:12;11.50;95.20
30174;DHT22;16985;50.814;8.530;2022-08-06T05:26:38;11.50;95.80
30174;DHT22;16985;50.814;8.530;2022-08-06T05:29:04;11.40;95.30
30174;DHT22;16985;50.814;8.530;2022-08-06T05:31:37;11.60;95.20
30174;DHT22;16985;50.814;8.530;2022-08-06T05:34:09;11.60;94.80
30174;DHT22;16985;50.814;8.530;2022-08-06T05:36:36;11.60;94.70
30174;DHT22;16985;50.814;8.530;2022-08-06T05:39:03;11.60;95.10
30174;DHT22;16985;50.814;8.530;2022-08-06T05:41:29;11.70;95.00
30174;DHT22;16985;50.814;8.530;2022-08-06T05:43:55;11.70;95.50
30174;DHT22;16985;50.814;8.530;2022-08-06T05:46:22;11.80;95.40
30174;DHT22;16985;50.814;8.530;2022-08-06T05:49:07;11.80;95.60
30174;DHT22;16985;50.814;8.530;2022-08-06T05:51:44;11.90;95.80
30174;DHT22;16985;50.814;8.530;2022-08-06T05:54:25;11.90;95.80
30174;DHT22;16985;50.814;8.530;2022-08-06T05:57:12;11.90;96.00
30174;DHT22;16985;50.814;8.530;2022-08-06T05:59:47;12.00;96.80
30174;DHT22;16985;50.814;8.530;2022-08-06T06:02:17;12.00;97.40
30174;DHT22;16985;50.814;8.530;2022-08-06T06:04:44;12.10;97.70
30174;DHT22;16985;50.814;8.530;2022-08-06T06:07:12;12.10;97.60
30174;DHT22;16985;50.814;8.530;2022-08-06T06:09:41;12.10;97.70
30174;DHT22;16985;50.814;8.530;2022-08-06T06:12:09;12.20;97.70
30174;DHT22;16985;50.814;8.530;2022-08-06T06:14:45;12.20;97.60
30174;DHT22;16985;50.814;8.530;2022-08-06T06:20:46;12.20;97.40
30174;DHT22;16985;50.814;8.530;2022-08-06T06:23:26;12.30;97.70
30174;DHT22;16985;50.814;8.530;2022-08-06T06:31:23;12.50;98.50
30174;DHT22;16985;50.814;8.530;2022-08-06T06:34:02;12.50;98.70
30174;DHT22;16985;50.814;8.530;2022-08-06T06:37:01;12.50;98.90
30174;DHT22;16985;50.814;8.530;2022-08-06T06:43:01;12.70;99.90
30174;DHT22;16985;50.814;8.530;2022-08-06T06:45:36;12.80;99.90
30174;DHT22;16985;50.814;8.530;2022-08-06T06:48:09;12.80;99.90
30174;DHT22;16985;50.814;8.530;2022-08-06T06:50:46;12.90;99.90
30174;DHT22;16985;50.814;8.530;2022-08-06T06:53:15;13.00;99.90
30174;DHT22;16985;50.814;8.530;2022-08-06T06:55:45;13.00;99.90
30174;DHT22;16985;50.814;8.530;2022-08-06T06:58:20;13.10;99.90
30174;DHT22;16985;50.814;8.530;2022-08-06T07:00:49;13.10;99.90
30174;DHT22;16985;50.814;8.530;2022-08-06T07:03:18;13.20;99.90
30174;DHT22;16985;50.814;8.530;2022-08-06T07:05:47;13.20;99.90
30174;DHT22;16985;50.814;8.530;2022-08-06T07:08:18;13.30;99.90
30174;DHT22;16985;50.814;8.530;2022-08-06T07:10:45;13.30;99.90
30174;DHT22;16985;50.814;8.530;2022-08-06T07:13:12;13.40;99.90
30174;DHT22;16985;50.814;8.530;2022-08-06T07:15:41;13.50;99.50
30174;DHT22;16985;50.814;8.530;2022-08-06T07:18:08;13.50;98.90
30174;DHT22;16985;50.814;8.530;2022-08-06T07:20:34;13.60;98.40
30174;DHT22;16985;50.814;8.530;2022-08-06T07:23:03;13.70;97.90
30174;DHT22;16985;50.814;8.530;2022-08-06T07:25:35;13.70;97.40
30174;DHT22;16985;50.814;8.530;2022-08-06T07:28:03;13.80;97.10
30174;DHT22;16985;50.814;8.530;2022-08-06T07:30:30;13.90;96.60
30174;DHT22;16985;50.814;8.530;2022-08-06T07:32:58;14.00;97.00
30174;DHT22;16985;50.814;8.530;2022-08-06T07:35:24;14.00;96.60
30174;DHT22;16985;50.814;8.530;2022-08-06T07:37:59;14.10;96.40
30174;DHT22;16985;50.814;8.530;2022-08-06T07:40:38;14.20;96.10
30174;DHT22;16985;50.814;8.530;2022-08-06T07:43:15;14.30;95.80
30174;DHT22;16985;50.814;8.530;2022-08-06T07:45:45;14.40;95.60
30174;DHT22;16985;50.814;8.530;2022-08-06T07:48:12;14.50;95.70
30174;DHT22;16985;50.814;8.530;2022-08-06T07:50:42;14.70;95.40
30174;DHT22;16985;50.814;8.530;2022-08-06T07:53:10;14.80;94.90
30174;DHT22;16985;50.814;8.530;2022-08-06T07:55:38;15.00;94.20
30174;DHT22;16985;50.814;8.530;2022-08-06T07:58:04;15.10;93.80
30174;DHT22;16985;50.814;8.530;2022-08-06T08:00:32;15.30;93.70
30174;DHT22;16985;50.814;8.530;2022-08-06T08:02:58;15.40;93.40
30174;DHT22;16985;50.814;8.530;2022-08-06T08:05:43;15.50;93.20
30174;DHT22;16985;50.814;8.530;2022-08-06T08:08:29;15.70;92.60
30174;DHT22;16985;50.814;8.530;2022-08-06T08:10:55;15.90;91.20
30174;DHT22;16985;50.814;8.530;2022-08-06T08:13:23;16.00;90.80
30174;DHT22;16985;50.814;8.530;2022-08-06T08:15:49;16.10;90.40
30174;DHT22;16985;50.814;8.530;2022-08-06T08:18:16;16.20;89.80
30174;DHT22;16985;50.814;8.530;2022-08-06T08:20:43;16.20;88.40
30174;DHT22;16985;50.814;8.530;2022-08-06T08:23:12;16.30;87.50
30174;DHT22;16985;50.814;8.530;2022-08-06T08:25:39;16.40;85.50
30174;DHT22;16985;50.814;8.530;2022-08-06T08:28:06;16.40;84.90
30174;DHT22;16985;50.814;8.530;2022-08-06T08:30:33;16.40;84.80
30174;DHT22;16985;50.814;8.530;2022-08-06T08:32:59;16.50;84.70
30174;DHT22;16985;50.814;8.530;2022-08-06T08:35:24;16.60;84.20
30174;DHT22;16985;50.814;8.530;2022-08-06T08:37:50;16.60;84.00
30174;DHT22;16985;50.814;8.530;2022-08-06T08:40:16;16.70;83.40
30174;DHT22;16985;50.814;8.530;2022-08-06T08:42:49;16.80;82.70
30174;DHT22;16985;50.814;8.530;2022-08-06T08:45:21;16.90;82.20
30174;DHT22;16985;50.814;8.530;2022-08-06T08:47:51;16.90;81.70
30174;DHT22;16985;50.814;8.530;2022-08-06T08:50:20;17.00;81.40
30174;DHT22;16985;50.814;8.530;2022-08-06T08:52:50;17.10;81.10
30174;DHT22;16985;50.814;8.530;2022-08-06T08:55:19;17.20;80.60
30174;DHT22;16985;50.814;8.530;2022-08-06T08:57:49;17.30;80.00
30174;DHT22;16985;50.814;8.530;2022-08-06T09:00:17;17.40;78.70
30174;DHT22;16985;50.814;8.530;2022-08-06T09:02:43;17.50;78.30
30174;DHT22;16985;50.814;8.530;2022-08-06T09:05:09;17.70;78.40
30174;DHT22;16985;50.814;8.530;2022-08-06T09:07:35;17.70;77.90
30174;DHT22;16985;50.814;8.530;2022-08-06T09:10:06;17.90;76.70
30174;DHT22;16985;50.814;8.530;2022-08-06T09:12:33;18.00;75.90
30174;DHT22;16985;50.814;8.530;2022-08-06T09:14:59;18.20;76.10
30174;DHT22;16985;50.814;8.530;2022-08-06T09:17:25;18.30;75.90
30174;DHT22;16985;50.814;8.530;2022-08-06T09:19:51;18.40;75.60
30174;DHT22;16985;50.814;8.530;2022-08-06T09:22:18;18.50;74.90
30174;DHT22;16985;50.814;8.530;2022-08-06T09:24:43;18.60;74.00
30174;DHT22;16985;50.814;8.530;2022-08-06T09:27:14;18.60;73.50
30174;DHT22;16985;50.814;8.530;2022-08-06T09:29:53;18.80;73.50
30174;DHT22;16985;50.814;8.530;2022-08-06T09:32:43;18.90;72.90
30174;DHT22;16985;50.814;8.530;2022-08-06T09:35:26;19.00;72.00
30174;DHT22;16985;50.814;8.530;2022-08-06T09:38:01;19.10;71.50
30174;DHT22;16985;50.814;8.530;2022-08-06T09:40:28;19.30;70.90
30174;DHT22;16985;50.814;8.530;2022-08-06T09:42:54;19.40;69.90
30174;DHT22;16985;50.814;8.530;2022-08-06T09:45:22;19.40;69.60
30174;DHT22;16985;50.814;8.530;2022-08-06T09:48:03;19.50;69.50
30174;DHT22;16985;50.814;8.530;2022-08-06T09:50:38;19.70;69.30
30174;DHT22;16985;50.814;8.530;2022-08-06T09:53:04;19.70;68.70
30174;DHT22;16985;50.814;8.530;2022-08-06T09:55:31;20.00;68.00
30174;DHT22;16985;50.814;8.530;2022-08-06T09:57:58;20.10;67.90
30174;DHT22;16985;50.814;8.530;2022-08-06T10:00:26;20.20;67.30
30174;DHT22;16985;50.814;8.530;2022-08-06T10:02:59;20.30;66.70
30174;DHT22;16985;50.814;8.530;2022-08-06T10:05:27;20.50;65.30
30174;DHT22;16985;50.814;8.530;2022-08-06T10:08:12;20.60;65.00
30174;DHT22;16985;50.814;8.530;2022-08-06T10:10:42;20.70;64.00
30174;DHT22;16985;50.814;8.530;2022-08-06T10:13:20;20.80;63.90
30174;DHT22;16985;50.814;8.530;2022-08-06T10:15:51;20.90;63.90
30174;DHT22;16985;50.814;8.530;2022-08-06T10:18:31;21.00;64.40
30174;DHT22;16985;50.814;8.530;2022-08-06T10:21:09;21.20;64.00
30174;DHT22;16985;50.814;8.530;2022-08-06T10:23:41;21.30;63.70
30174;DHT22;16985;50.814;8.530;2022-08-06T10:26:08;21.40;63.40
30174;DHT22;16985;50.814;8.530;2022-08-06T10:28:41;21.40;62.30
30174;DHT22;16985;50.814;8.530;2022-08-06T10:31:11;21.40;62.10
30174;DHT22;16985;50.814;8.530;2022-08-06T10:33:51;21.40;61.80
30174;DHT22;16985;50.814;8.530;2022-08-06T10:36:26;21.40;61.30
30174;DHT22;16985;50.814;8.530;2022-08-06T10:38:57;21.40;61.10
30174;DHT22;16985;50.814;8.530;2022-08-06T10:41:23;21.40;61.60
30174;DHT22;16985;50.814;8.530;2022-08-06T10:43:53;21.60;61.50
30174;DHT22;16985;50.814;8.530;2022-08-06T10:46:19;21.70;61.30
30174;DHT22;16985;50.814;8.530;2022-08-06T10:48:45;21.80;60.90
30174;DHT22;16985;50.814;8.530;2022-08-06T10:51:14;21.90;60.60
30174;DHT22;16985;50.814;8.530;2022-08-06T10:53:42;22.00;60.40
30174;DHT22;16985;50.814;8.530;2022-08-06T10:56:12;22.20;60.30
30174;DHT22;16985;50.814;8.530;2022-08-06T10:58:39;22.30;59.30
30174;DHT22;16985;50.814;8.530;2022-08-06T11:01:26;22.40;58.80
30174;DHT22;16985;50.814;8.530;2022-08-06T11:04:18;22.40;58.00
30174;DHT22;16985;50.814;8.530;2022-08-06T11:07:26;22.40;57.00
30174;DHT22;16985;50.814;8.530;2022-08-06T11:15:48;22.30;56.80
30174;DHT22;16985;50.814;8.530;2022-08-06T11:18:15;22.50;56.70
30174;DHT22;16985;50.814;8.530;2022-08-06T11:20:46;22.50;56.30
30174;DHT22;16985;50.814;8.530;2022-08-06T11:28:09;23.00;56.30
30174;DHT22;16985;50.814;8.530;2022-08-06T11:33:19;23.30;55.80
30174;DHT22;16985;50.814;8.530;2022-08-06T11:36:08;23.30;55.30
30174;DHT22;16985;50.814;8.530;2022-08-06T11:41:27;23.50;53.80
30174;DHT22;16985;50.814;8.530;2022-08-06T11:46:29;23.70;53.70
30174;DHT22;16985;50.814;8.530;2022-08-06T11:51:41;24.00;53.40
30174;DHT22;16985;50.814;8.530;2022-08-06T11:54:26;24.10;53.00
30174;DHT22;16985;50.814;8.530;2022-08-06T11:59:25;24.20;52.30
30174;DHT22;16985;50.814;8.530;2022-08-06T12:01:52;24.20;52.10
30174;DHT22;16985;50.814;8.530;2022-08-06T12:07:27;24.30;51.00
30174;DHT22;16985;50.814;8.530;2022-08-06T12:10:02;24.40;51.00
30174;DHT22;16985;50.814;8.530;2022-08-06T12:13:00;24.40;50.60
30174;DHT22;16985;50.814;8.530;2022-08-06T12:20:40;24.70;50.60
30174;DHT22;16985;50.814;8.530;2022-08-06T12:23:09;24.80;50.80
30174;DHT22;16985;50.814;8.530;2022-08-06T12:25:44;24.90;50.80
30174;DHT22;16985;50.814;8.530;2022-08-06T12:28:16;25.00;50.70
30174;DHT22;16985;50.814;8.530;2022-08-06T12:33:14;25.10;50.30
30174;DHT22;16985;50.814;8.530;2022-08-06T12:36:01;25.00;50.00
30174;DHT22;16985;50.814;8.530;2022-08-06T12:38:29;25.10;49.70
30174;DHT22;16985;50.814;8.530;2022-08-06T12:41:08;25.20;49.80
30174;DHT22;16985;50.814;8.530;2022-08-06T12:43:35;25.40;49.30
30174;DHT22;16985;50.814;8.530;2022-08-06T12:46:04;25.50;49.40
30174;DHT22;16985;50.814;8.530;2022-08-06T12:48:32;25.60;49.00
30174;DHT22;16985;50.814;8.530;2022-08-06T12:51:04;25.70;49.00
30174;DHT22;16985;50.814;8.530;2022-08-06T12:53:33;25.80;48.40
30174;DHT22;16985;50.814;8.530;2022-08-06T12:56:04;25.80;48.10
30174;DHT22;16985;50.814;8.530;2022-08-06T12:58:32;25.80;48.30
30174;DHT22;16985;50.814;8.530;2022-08-06T13:01:01;25.70;48.20
30174;DHT22;16985;50.814;8.530;2022-08-06T13:03:29;25.60;47.60
30174;DHT22;16985;50.814;8.530;2022-08-06T13:05:59;25.40;47.10
30174;DHT22;16985;50.814;8.530;2022-08-06T13:08:27;25.50;47.10
30174;DHT22;16985;50.814;8.530;2022-08-06T13:11:00;25.50;47.20
30174;DHT22;16985;50.814;8.530;2022-08-06T13:13:40;25.50;47.20
30174;DHT22;16985;50.814;8.530;2022-08-06T13:16:14;25.60;47.20
30174;DHT22;16985;50.814;8.530;2022-08-06T13:18:42;25.70;47.20
30174;DHT22;16985;50.814;8.530;2022-08-06T13:21:26;25.60;46.90
30174;DHT22;16985;50.814;8.530;2022-08-06T13:23:52;25.70;46.40
30174;DHT22;16985;50.814;8.530;2022-08-06T13:26:24;25.60;46.30
30174;DHT22;16985;50.814;8.530;2022-08-06T13:29:19;25.50;46.30
30174;DHT22;16985;50.814;8.530;2022-08-06T13:32:07;25.50;46.50
30174;DHT22;16985;50.814;8.530;2022-08-06T13:34:49;25.50;47.10
30174;DHT22;16985;50.814;8.530;2022-08-06T13:37:39;25.60;47.30
30174;DHT22;16985;50.814;8.530;2022-08-06T13:40:16;25.60;47.00
30174;DHT22;16985;50.814;8.530;2022-08-06T13:42:55;25.70;47.20
30174;DHT22;16985;50.814;8.530;2022-08-06T13:45:26;25.80;47.20
30174;DHT22;16985;50.814;8.530;2022-08-06T13:48:07;25.80;46.80
30174;DHT22;16985;50.814;8.530;2022-08-06T13:50:42;25.90;46.60
30174;DHT22;16985;50.814;8.530;2022-08-06T13:53:10;25.90;46.40
30174;DHT22;16985;50.814;8.530;2022-08-06T13:55:38;26.00;46.70
30174;DHT22;16985;50.814;8.530;2022-08-06T13:58:08;26.10;46.30
30174;DHT22;16985;50.814;8.530;2022-08-06T14:00:35;26.10;45.90
30174;DHT22;16985;50.814;8.530;2022-08-06T14:03:02;26.20;45.60
30174;DHT22;16985;50.814;8.530;2022-08-06T14:05:28;26.30;45.40
30174;DHT22;16985;50.814;8.530;2022-08-06T14:07:54;26.20;45.00
30174;DHT22;16985;50.814;8.530;2022-08-06T14:10:20;26.30;44.90
30174;DHT22;16985;50.814;8.530;2022-08-06T14:12:46;26.30;45.10
30174;DHT22;16985;50.814;8.530;2022-08-06T14:15:31;26.30;45.00
30174;DHT22;16985;50.814;8.530;2022-08-06T14:17:57;26.30;45.10
30174;DHT22;16985;50.814;8.530;2022-08-06T14:20:23;26.30;45.40
30174;DHT22;16985;50.814;8.530;2022-08-06T14:22:50;26.30;45.30
30174;DHT22;16985;50.814;8.530;2022-08-06T14:25:16;26.20;44.90
30174;DHT22;16985;50.814;8.530;2022-08-06T14:27:42;26.10;45.00
30174;DHT22;16985;50.814;8.530;2022-08-06T14:30:08;26.10;44.90
30174;DHT22;16985;50.814;8.530;2022-08-06T14:32:34;26.00;44.90
30174;DHT22;16985;50.814;8.530;2022-08-06T14:35:00;26.10;45.20
30174;DHT22;16985;50.814;8.530;2022-08-06T14:37:26;26.10;45.50
30174;DHT22;16985;50.814;8.530;2022-08-06T14:39:52;26.20;45.40
30174;DHT22;16985;50.814;8.530;2022-08-06T14:42:20;26.20;45.30
30174;DHT22;16985;50.814;8.530;2022-08-06T14:45:04;26.20;45.00
30174;DHT22;16985;50.814;8.530;2022-08-06T14:47:34;26.20;44.90
30174;DHT22;16985;50.814;8.530;2022-08-06T14:50:00;26.20;44.90
30174;DHT22;16985;50.814;8.530;2022-08-06T14:52:26;26.10;44.90
30174;DHT22;16985;50.814;8.530;2022-08-06T14:54:52;26.00;44.60
30174;DHT22;16985;50.814;8.530;2022-08-06T14:57:18;26.00;44.80
30174;DHT22;16985;50.814;8.530;2022-08-06T14:59:46;26.10;44.80
30174;DHT22;16985;50.814;8.530;2022-08-06T15:02:16;26.00;44.90
30174;DHT22;16985;50.814;8.530;2022-08-06T15:04:42;25.90;44.70
30174;DHT22;16985;50.814;8.530;2022-08-06T15:07:10;25.90;44.90
30174;DHT22;16985;50.814;8.530;2022-08-06T15:09:36;25.90;44.80
30174;DHT22;16985;50.814;8.530;2022-08-06T15:12:02;25.90;44.60
30174;DHT22;16985;50.814;8.530;2022-08-06T15:14:28;25.90;44.90
30174;DHT22;16985;50.814;8.530;2022-08-06T15:16:54;25.80;44.90
30174;DHT22;16985;50.814;8.530;2022-08-06T15:19:20;25.90;44.90
30174;DHT22;16985;50.814;8.530;2022-08-06T15:21:46;25.90;45.00
30174;DHT22;16985;50.814;8.530;2022-08-06T15:24:13;25.90;45.10
30174;DHT22;16985;50.814;8.530;2022-08-06T15:26:39;25.80;45.10
30174;DHT22;16985;50.814;8.530;2022-08-06T15:29:05;25.70;44.90
30174;DHT22;16985;50.814;8.530;2022-08-06T15:31:32;25.70;45.10
30174;DHT22;16985;50.814;8.530;2022-08-06T15:33:58;25.60;45.20
30174;DHT22;16985;50.814;8.530;2022-08-06T15:36:24;25.60;45.50
30174;DHT22;16985;50.814;8.530;2022-08-06T15:38:51;25.50;45.40
30174;DHT22;16985;50.814;8.530;2022-08-06T15:41:19;25.40;45.20
30174;DHT22;16985;50.814;8.530;2022-08-06T15:43:51;25.20;45.10
30174;DHT22;16985;50.814;8.530;2022-08-06T15:46:17;25.10;45.50
30174;DHT22;16985;50.814;8.530;2022-08-06T15:48:44;25.00;45.60
30174;DHT22;16985;50.814;8.530;2022-08-06T15:51:10;24.80;45.80
30174;DHT22;16985;50.814;8.530;2022-08-06T15:53:36;24.70;46.10
30174;DHT22;16985;50.814;8.530;2022-08-06T15:56:02;24.50;46.80
30174;DHT22;16985;50.814;8.530;2022-08-06T15:58:28;24.40;46.10
30174;DHT22;16985;50.814;8.530;2022-08-06T16:00:54;24.20;45.90
30174;DHT22;16985;50.814;8.530;2022-08-06T16:03:20;24.00;46.10
30174;DHT22;16985;50.814;8.530;2022-08-06T16:05:45;23.80;46.20
30174;DHT22;16985;50.814;8.530;2022-08-06T16:08:12;23.80;46.70
30174;DHT22;16985;50.814;8.530;2022-08-06T16:10:43;23.70;46.90
30174;DHT22;16985;50.814;8.530;2022-08-06T16:13:11;23.60;47.30
30174;DHT22;16985;50.814;8.530;2022-08-06T16:15:44;23.60;47.20
30174;DHT22;16985;50.814;8.530;2022-08-06T16:18:11;23.40;47.50
30174;DHT22;16985;50.814;8.530;2022-08-06T16:20:40;23.30;47.30
30174;DHT22;16985;50.814;8.530;2022-08-06T16:23:07;23.10;47.20
30174;DHT22;16985;50.814;8.530;2022-08-06T16:25:34;23.00;47.50
30174;DHT22;16985;50.814;8.530;2022-08-06T16:28:00;22.90;48.00
30174;DHT22;16985;50.814;8.530;2022-08-06T16:30:26;22.80;48.50
30174;DHT22;16985;50.814;8.530;2022-08-06T16:32:51;22.70;48.70
30174;DHT22;16985;50.814;8.530;2022-08-06T16:35:18;22.60;49.00
30174;DHT22;16985;50.814;8.530;2022-08-06T16:37:44;22.60;49.10
30174;DHT22;16985;50.814;8.530;2022-08-06T16:40:10;22.50;49.30
30174;DHT22;16985;50.814;8.530;2022-08-06T16:42:36;22.50;49.40
30174;DHT22;16985;50.814;8.530;2022-08-06T16:45:03;22.40;49.60
30174;DHT22;16985;50.814;8.530;2022-08-06T16:47:30;22.30;49.70